Hovedside
METAR-TAF:

METAR-TAF

Lufthavner :

Beijing, Kina

Beijing internasjonale lufthavn

breddegrad: 39-56N, lengdegrad: 116-17E, høyde over havet: 55 m

Gjeldene værobservasjon

Denne rapporten ble laget for 34 minutter siden, klokken 18:00 UTC
Vind 2 kt fra Nord
Temperatur 9°C
Luftfuktighet 81%
Trykk 1016 hPa
Sikt 10 km eller mer
ingen skyer under 1500 m og ingen bygeskyer

METAR: ZBAA 241800Z 01001MPS CAVOK 09/06 Q1016 NOSIG

Tid: 02:34 (18:34 UTC)

Varsel

Denne rapporten ble laget for 3 timer og 4 minutter siden, klokken 15:30 UTC
Varsel gyldig fra 24. klokken 18 UTC til 25. klokken 18 UTC
Vind 8 kt fra Sør
Sikt: 6000 m

TAF: ZBAA 241530Z 2418/2518 19004MPS 6000 NSC TX26/2507Z TN09/2422Z

Værobservasjoner og værvarsel for over 4000 flyplasser (METAR- og TAF-rapporter).

Tilgjengelige stasjoner er representert av de røde og gule prikkene på kartet.

Hold musepekeren over prikken for å se navnet på stasjonen.

Klikk så for å se værobservasjoner og -varsler.

For å forandre kartet kan du klikke på den grønne knappen med svart kryss for å zoome inn, på den grønne knappen med strek for å zoome ut, eller på de grønne pilene for å se tilstøtende kart.


METAR-TAF: